createdAt,value
2019-05-25T00:04:55.021Z,12.03
2019-05-25T00:09:59.402Z,12.17
2019-05-25T00:15:05.517Z,11.30
2019-05-25T00:20:09.930Z,12.27
2019-05-25T00:25:14.412Z,11.63
2019-05-25T00:30:18.778Z,11.37
2019-05-25T00:35:23.554Z,11.33
2019-05-25T00:40:28.006Z,10.63
2019-05-25T00:45:32.447Z,11.37
2019-05-25T00:50:36.895Z,10.77
2019-05-25T00:55:41.250Z,10.50
2019-05-25T01:00:45.674Z,9.87
2019-05-25T01:05:50.078Z,10.10
2019-05-25T01:10:54.424Z,9.60
2019-05-25T01:15:59.290Z,9.50
2019-05-25T01:21:04.032Z,9.67
2019-05-25T01:26:08.373Z,10.23
2019-05-25T01:31:12.814Z,9.83
2019-05-25T01:36:17.212Z,9.83
2019-05-25T01:41:21.596Z,9.47
2019-05-25T01:46:26.003Z,9.50
2019-05-25T01:51:30.371Z,9.78
2019-05-25T01:56:34.729Z,9.90
2019-05-25T02:01:39.134Z,10.80
2019-05-25T02:06:44.571Z,10.83
2019-05-25T02:11:48.917Z,10.50
2019-05-25T02:16:53.290Z,10.30
2019-05-25T02:21:57.607Z,10.77
2019-05-25T02:27:01.945Z,9.87
2019-05-25T02:32:06.299Z,10.43
2019-05-25T02:37:10.670Z,9.07
2019-05-25T02:42:15.137Z,8.93
2019-05-25T02:47:19.552Z,8.43
2019-05-25T02:52:23.868Z,8.40
2019-05-25T02:57:28.211Z,9.23
2019-05-25T03:02:32.855Z,9.50
2019-05-25T03:07:37.204Z,9.20
2019-05-25T03:12:41.568Z,9.10
2019-05-25T03:17:45.910Z,9.70
2019-05-25T03:22:50.245Z,9.23
2019-05-25T03:27:54.611Z,8.97
2019-05-25T03:32:58.985Z,9.20
2019-05-25T03:38:03.408Z,12.00
2019-05-25T03:43:07.713Z,10.33
2019-05-25T03:48:12.066Z,10.63
2019-05-25T03:53:16.455Z,10.73
2019-05-25T03:58:20.832Z,12.67
2019-05-25T04:03:25.241Z,11.60
2019-05-25T04:08:29.592Z,10.20
2019-05-25T04:13:33.972Z,13.47
2019-05-25T04:18:38.450Z,10.40
2019-05-25T04:23:42.829Z,10.07
2019-05-25T04:28:47.321Z,10.10
2019-05-25T04:33:51.675Z,10.07
2019-05-25T04:38:56.096Z,9.47
2019-05-25T04:44:00.519Z,10.53
2019-05-25T04:49:04.840Z,9.10
2019-05-25T04:54:09.210Z,10.17
2019-05-25T04:59:13.577Z,9.40
2019-05-25T05:04:18.092Z,10.10
2019-05-25T05:09:22.487Z,8.80
2019-05-25T05:14:26.805Z,9.10
2019-05-25T05:19:31.207Z,11.07
2019-05-25T05:24:35.561Z,9.80
2019-05-25T05:29:39.908Z,9.60
2019-05-25T05:34:44.274Z,9.20
2019-05-25T05:39:48.804Z,9.37
2019-05-25T05:44:56.047Z,9.10
2019-05-25T05:50:00.886Z,9.03
2019-05-25T05:55:08.279Z,9.77
2019-05-25T06:00:13.995Z,9.87
2019-05-25T06:05:18.363Z,10.33
2019-05-25T06:10:22.992Z,10.07
2019-05-25T06:15:27.356Z,14.30
2019-05-25T06:20:31.739Z,12.07
2019-05-25T06:25:36.125Z,11.30
2019-05-25T06:30:40.466Z,11.50
2019-05-25T06:35:44.882Z,10.43
2019-05-25T06:40:49.251Z,10.23
2019-05-25T06:45:53.635Z,10.03
2019-05-25T06:50:57.986Z,9.43
2019-05-25T06:56:02.336Z,5.90
2019-05-25T07:01:06.718Z,6.30
2019-05-25T07:06:11.053Z,5.37
2019-05-25T07:11:15.402Z,6.90
2019-05-25T07:16:19.749Z,6.87
2019-05-25T07:21:24.191Z,5.57
2019-05-25T07:26:28.555Z,5.10
2019-05-25T07:31:32.921Z,3.93
2019-05-25T07:36:37.289Z,4.10
2019-05-25T07:41:41.643Z,4.63
2019-05-25T07:46:46.020Z,3.80
2019-05-25T07:51:50.388Z,3.53
2019-05-25T07:56:54.740Z,3.77
2019-05-25T08:01:59.170Z,4.90
2019-05-25T08:07:03.608Z,5.00
2019-05-25T08:12:07.967Z,5.95
2019-05-25T08:17:12.314Z,7.03
2019-05-25T08:22:16.655Z,7.10
2019-05-25T08:27:21.074Z,7.10
2019-05-25T08:32:25.461Z,7.63
2019-05-25T08:37:29.825Z,5.63
2019-05-25T08:42:34.206Z,5.23
2019-05-25T08:47:38.566Z,5.80
2019-05-25T08:52:43.044Z,5.20
2019-05-25T08:57:49.056Z,6.23
2019-05-25T09:02:53.903Z,4.20
2019-05-25T09:08:01.141Z,4.97
2019-05-25T09:13:11.988Z,5.33
2019-05-25T09:18:17.987Z,4.67
2019-05-25T09:23:22.351Z,4.33
2019-05-25T09:28:26.734Z,4.67
2019-05-25T09:33:31.082Z,2.85
2019-05-25T09:38:35.477Z,3.67
2019-05-25T09:43:39.815Z,5.97
2019-05-25T09:48:44.201Z,4.35
2019-05-25T09:53:48.587Z,6.63
2019-05-25T09:58:53.302Z,3.97
2019-05-25T10:03:57.670Z,4.30
2019-05-25T10:09:02.070Z,4.72
2019-05-25T10:14:06.617Z,5.30
2019-05-25T10:19:10.969Z,4.17
2019-05-25T10:24:15.345Z,4.23
2019-05-25T10:29:34.174Z,6.17
2019-05-25T10:34:26.843Z,4.93
2019-05-25T10:39:31.318Z,3.83
2019-05-25T10:44:35.650Z,3.93
2019-05-25T10:49:40.020Z,5.60
2019-05-25T10:54:44.718Z,7.37
2019-05-25T10:59:53.118Z,5.07
2019-05-25T11:04:55.183Z,5.80
2019-05-25T11:09:59.544Z,5.37
2019-05-25T11:15:05.801Z,5.23
2019-05-25T11:20:11.798Z,7.73
2019-05-25T11:25:16.375Z,4.25
2019-05-25T11:30:21.043Z,4.78
2019-05-25T11:35:25.392Z,6.10
2019-05-25T11:40:29.886Z,4.40
2019-05-25T11:45:34.269Z,6.45
2019-05-25T11:50:38.630Z,4.70
2019-05-25T11:55:43.003Z,6.08
2019-05-25T12:00:47.366Z,6.37
2019-05-25T12:05:51.874Z,6.90
2019-05-25T12:10:56.232Z,6.53
2019-05-25T12:16:00.834Z,5.65
2019-05-25T12:21:05.471Z,5.33
2019-05-25T12:26:09.891Z,7.30
2019-05-25T12:31:14.271Z,8.15
2019-05-25T12:36:18.637Z,6.40
2019-05-25T12:41:22.994Z,5.42
2019-05-25T12:46:27.366Z,6.33
2019-05-25T12:51:32.296Z,7.22
2019-05-25T12:56:36.689Z,7.35
2019-05-25T13:01:41.112Z,5.03
2019-05-25T13:06:45.468Z,6.13
2019-05-25T13:11:49.815Z,6.20
2019-05-25T13:16:54.174Z,6.30
2019-05-25T13:21:58.547Z,7.12
2019-05-25T13:27:03.015Z,8.58
2019-05-25T13:32:07.419Z,7.93
2019-05-25T13:37:12.265Z,7.50
2019-05-25T13:42:16.661Z,7.17
2019-05-25T13:47:21.040Z,5.90
2019-05-25T13:52:25.393Z,6.60
2019-05-25T13:57:29.822Z,6.33
2019-05-25T14:02:34.209Z,6.27
2019-05-25T14:07:38.618Z,6.10
2019-05-25T14:12:42.968Z,6.10
2019-05-25T14:17:47.373Z,6.92
2019-05-25T14:22:51.925Z,7.20
2019-05-25T14:27:56.294Z,7.35
2019-05-25T14:33:00.653Z,5.83
2019-05-25T14:38:05.022Z,7.15
2019-05-25T14:43:09.370Z,7.30
2019-05-25T14:48:13.728Z,6.70
2019-05-25T14:53:18.188Z,8.23
2019-05-25T14:58:22.542Z,6.55
2019-05-25T15:03:26.888Z,6.37
2019-05-25T15:08:31.271Z,7.28
2019-05-25T15:13:35.647Z,7.65
2019-05-25T15:18:40.046Z,7.43
2019-05-25T15:23:44.405Z,6.47
2019-05-25T15:28:48.781Z,8.88
2019-05-25T15:33:53.226Z,9.08
2019-05-25T15:38:57.581Z,9.78
2019-05-25T15:44:02.068Z,9.20
2019-05-25T15:49:06.450Z,12.70
2019-05-25T15:54:10.991Z,11.65
2019-05-25T15:59:15.796Z,10.28
2019-05-25T16:04:20.371Z,10.75
2019-05-25T16:09:24.827Z,10.78
2019-05-25T16:14:29.207Z,10.60
2019-05-25T16:19:33.604Z,10.57
2019-05-25T16:24:38.007Z,12.30
2019-05-25T16:29:42.599Z,11.30
2019-05-25T16:34:47.156Z,12.07
2019-05-25T16:39:51.684Z,11.43
2019-05-25T16:44:56.117Z,13.13
2019-05-25T16:50:00.653Z,13.70
2019-05-25T16:55:06.822Z,13.43
2019-05-25T17:00:11.247Z,13.77
2019-05-25T17:05:15.904Z,13.50
2019-05-25T17:10:21.018Z,14.10
2019-05-25T17:15:28.382Z,13.68
2019-05-25T17:20:33.790Z,14.77
2019-05-25T17:25:38.405Z,13.80
2019-05-25T17:30:46.200Z,13.37
2019-05-25T17:35:52.058Z,11.85
2019-05-25T17:41:01.026Z,12.60
2019-05-25T17:46:05.770Z,11.30
2019-05-25T17:51:10.262Z,10.13
2019-05-25T17:56:16.337Z,10.00
2019-05-25T18:01:24.684Z,8.77
2019-05-25T18:06:29.099Z,10.03
2019-05-25T18:11:33.508Z,9.50
2019-05-25T18:16:38.017Z,8.50
2019-05-25T18:21:42.575Z,8.07
2019-05-25T18:26:48.025Z,8.00
2019-05-25T18:31:52.459Z,7.70
2019-05-25T18:36:56.899Z,6.93
2019-05-25T18:42:01.281Z,9.03
2019-05-25T18:47:06.653Z,7.13
2019-05-25T18:52:11.305Z,8.20
2019-05-25T18:57:15.663Z,6.50
2019-05-25T19:02:20.024Z,6.23
2019-05-25T19:07:24.394Z,7.97
2019-05-25T19:12:28.778Z,7.23
2019-05-25T19:17:33.109Z,9.80
2019-05-25T19:22:37.473Z,10.20
2019-05-25T19:27:43.038Z,8.63
2019-05-25T19:32:47.355Z,8.40
2019-05-25T19:37:51.707Z,9.03
2019-05-25T19:42:56.172Z,7.93
2019-05-25T19:48:00.534Z,8.00
2019-05-25T19:53:04.950Z,9.97
2019-05-25T19:58:09.868Z,8.20
2019-05-25T20:03:15.285Z,8.07
2019-05-25T20:08:23.310Z,10.00
2019-05-25T20:13:30.939Z,8.03
2019-05-25T20:18:37.944Z,7.70
2019-05-25T20:23:46.580Z,8.60
2019-05-25T20:29:09.015Z,8.53
2019-05-25T20:34:20.602Z,7.53
2019-05-25T20:39:30.245Z,7.90
2019-05-25T20:44:36.952Z,10.53
2019-05-25T20:49:43.140Z,7.33
2019-05-25T20:54:49.450Z,8.23
2019-05-25T20:59:56.082Z,9.43
2019-05-25T21:05:02.767Z,7.63
2019-05-25T21:10:08.741Z,8.80
2019-05-25T21:15:15.964Z,9.25
2019-05-25T21:20:23.210Z,10.47
2019-05-25T21:25:28.552Z,10.10
2019-05-25T21:30:33.562Z,9.87
2019-05-25T21:35:38.092Z,10.00
2019-05-25T21:40:42.483Z,10.07
2019-05-25T21:45:46.846Z,10.00
2019-05-25T21:50:51.240Z,8.63
2019-05-25T21:55:55.625Z,8.67
2019-05-25T22:01:00.000Z,9.77
2019-05-25T22:06:06.375Z,9.33
2019-05-25T22:11:10.892Z,9.60
2019-05-25T22:16:15.262Z,7.27
2019-05-25T22:21:19.758Z,9.60
2019-05-25T22:26:24.243Z,8.33
2019-05-25T22:31:28.634Z,8.37
2019-05-25T22:36:40.214Z,7.40
2019-05-25T22:41:39.449Z,6.67
2019-05-25T22:46:43.792Z,6.03
2019-05-25T22:51:48.184Z,6.70
2019-05-25T22:56:52.596Z,6.33
2019-05-25T23:01:56.973Z,5.17
2019-05-25T23:07:01.419Z,5.67
2019-05-25T23:12:06.463Z,5.87
2019-05-25T23:17:10.896Z,6.03
2019-05-25T23:22:15.268Z,5.27
2019-05-25T23:27:19.662Z,5.40
2019-05-25T23:32:24.015Z,7.33
2019-05-25T23:37:28.999Z,5.90
2019-05-25T23:42:33.461Z,5.90
2019-05-25T23:47:37.809Z,5.87
2019-05-25T23:52:42.229Z,6.43
2019-05-25T23:57:46.596Z,4.57
